createdAt,value
2023-01-17T00:02:13.126Z,96540.64
2023-01-17T00:04:58.791Z,96535.47
2023-01-17T00:07:45.699Z,96540.05
2023-01-17T00:10:22.562Z,96541.78
2023-01-17T00:13:02.980Z,96540.23
2023-01-17T00:15:31.272Z,96538.68
2023-01-17T00:17:58.567Z,96535.88
2023-01-17T00:20:46.334Z,96538.14
2023-01-17T00:23:37.387Z,96542.46
2023-01-17T00:26:15.094Z,96541.35
2023-01-17T00:28:43.601Z,96542.11
2023-01-17T00:31:12.620Z,96549.39
2023-01-17T00:33:39.640Z,96557.33
2023-01-17T00:36:08.220Z,96560.16
2023-01-17T00:38:37.413Z,96562.10
2023-01-17T00:41:08.015Z,96567.42
2023-01-17T00:43:53.817Z,96574.34
2023-01-17T00:46:39.851Z,96575.10
2023-01-17T00:49:26.330Z,96569.58
2023-01-17T00:52:12.233Z,96569.73
2023-01-17T00:54:59.088Z,96567.27
2023-01-17T00:57:44.859Z,96557.62
2023-01-17T01:00:31.100Z,96560.09
2023-01-17T01:03:16.661Z,96572.13
2023-01-17T01:06:02.266Z,96575.66
2023-01-17T01:08:48.234Z,96577.83
2023-01-17T01:11:39.467Z,96572.52
2023-01-17T01:14:28.719Z,96566.31
2023-01-17T01:17:14.381Z,96558.56
2023-01-17T01:19:59.832Z,96549.17
2023-01-17T01:22:45.491Z,96548.41
2023-01-17T01:25:31.127Z,96553.48
2023-01-17T01:28:31.888Z,96561.56
2023-01-17T01:31:22.390Z,96570.74
2023-01-17T01:33:53.330Z,96574.11
2023-01-17T01:36:20.947Z,96570.92
2023-01-17T01:38:49.693Z,96574.79
2023-01-17T01:41:17.425Z,96564.60
2023-01-17T01:43:46.234Z,96556.65
2023-01-17T01:46:23.387Z,96549.52
2023-01-17T01:48:54.004Z,96548.13
2023-01-17T01:51:43.843Z,96550.03
2023-01-17T01:54:20.026Z,96547.47
2023-01-17T01:56:48.638Z,96540.45
2023-01-17T01:59:18.773Z,96538.41
2023-01-17T02:01:47.843Z,96536.09
2023-01-17T02:04:14.960Z,96537.95
2023-01-17T02:06:51.611Z,96536.34
2023-01-17T02:09:19.630Z,96541.85
2023-01-17T02:11:49.604Z,96539.10
2023-01-17T02:14:18.830Z,96538.45
2023-01-17T02:16:58.119Z,96536.15
2023-01-17T02:19:37.058Z,96535.58
2023-01-17T02:22:19.443Z,96536.68
2023-01-17T02:25:27.700Z,96540.06
2023-01-17T02:32:55.860Z,96531.45
2023-01-17T02:35:32.114Z,96520.77
2023-01-17T02:38:16.142Z,96515.31
2023-01-17T02:41:10.862Z,96502.33
2023-01-17T02:43:39.171Z,96490.63
2023-01-17T02:46:06.911Z,96487.31
2023-01-17T02:48:37.186Z,96491.50
2023-01-17T02:51:22.703Z,96497.95
2023-01-17T02:54:09.753Z,96507.52
2023-01-17T02:56:58.111Z,96513.11
2023-01-17T02:59:45.926Z,96518.81
2023-01-17T03:03:00.518Z,96531.74
2023-01-17T03:05:56.958Z,96532.79
2023-01-17T03:08:25.355Z,96535.05
2023-01-17T03:10:52.760Z,96542.52
2023-01-17T03:13:19.742Z,96545.37
2023-01-17T03:15:46.816Z,96549.77
2023-01-17T03:18:15.971Z,96545.52
2023-01-17T03:20:42.891Z,96549.41
2023-01-17T03:23:09.893Z,96553.21
2023-01-17T03:25:36.906Z,96560.41
2023-01-17T03:28:04.192Z,96566.48
2023-01-17T03:30:31.126Z,96563.44
2023-01-17T03:33:03.669Z,96566.24
2023-01-17T03:35:30.666Z,96564.46
2023-01-17T03:37:57.612Z,96566.82
2023-01-17T03:40:24.797Z,96578.63
2023-01-17T03:42:51.677Z,96582.55
2023-01-17T03:45:19.503Z,96583.02
2023-01-17T03:47:46.487Z,96584.33
2023-01-17T03:50:13.522Z,96582.08
2023-01-17T03:52:40.435Z,96577.31
2023-01-17T03:55:07.727Z,96579.34
2023-01-17T03:57:34.620Z,96581.44
2023-01-17T04:00:01.641Z,96585.21
2023-01-17T04:02:28.676Z,96586.55
2023-01-17T04:04:55.822Z,96586.71
2023-01-17T04:07:22.749Z,96581.34
2023-01-17T04:09:51.729Z,96579.66
2023-01-17T04:12:18.611Z,96582.25
2023-01-17T04:14:45.529Z,96579.23
2023-01-17T04:17:13.923Z,96577.91
2023-01-17T04:19:41.105Z,96580.52
2023-01-17T04:22:08.121Z,96580.96
2023-01-17T04:24:35.340Z,96580.46
2023-01-17T04:27:04.640Z,96582.46
2023-01-17T04:29:31.984Z,96579.25
2023-01-17T04:32:01.080Z,96581.30
2023-01-17T04:34:28.008Z,96583.10
2023-01-17T04:36:54.978Z,96578.91
2023-01-17T04:39:23.049Z,96579.96
2023-01-17T04:41:49.960Z,96581.40
2023-01-17T04:44:16.839Z,96585.25
2023-01-17T04:46:44.365Z,96586.73
2023-01-17T04:49:11.255Z,96584.34
2023-01-17T04:51:38.182Z,96582.81
2023-01-17T04:54:05.257Z,96582.94
2023-01-17T04:56:32.189Z,96585.91
2023-01-17T04:58:59.074Z,96590.17
2023-01-17T05:01:26.737Z,96590.90
2023-01-17T05:03:53.728Z,96591.88
2023-01-17T05:06:20.684Z,96598.92
2023-01-17T05:08:47.666Z,96603.37
2023-01-17T05:11:15.061Z,96603.34
2023-01-17T05:13:41.922Z,96599.99
2023-01-17T05:16:08.908Z,96596.83
2023-01-17T05:18:37.168Z,96601.98
2023-01-17T05:21:06.763Z,96601.34
2023-01-17T05:23:33.706Z,96599.97
2023-01-17T05:26:00.704Z,96598.94
2023-01-17T05:28:27.590Z,96596.79
2023-01-17T05:30:54.642Z,96592.77
2023-01-17T05:33:22.036Z,96595.26
2023-01-17T05:35:49.005Z,96589.60
2023-01-17T05:38:16.647Z,96591.98
2023-01-17T05:40:43.547Z,96587.83
2023-01-17T05:43:10.613Z,96580.87
2023-01-17T05:45:37.661Z,96569.56
2023-01-17T05:48:06.218Z,96564.43
2023-01-17T05:50:36.716Z,96557.73
2023-01-17T05:53:10.379Z,96556.30
2023-01-17T05:55:38.855Z,96560.08
2023-01-17T05:58:08.579Z,96570.59
2023-01-17T06:00:36.738Z,96577.99
2023-01-17T06:03:03.830Z,96583.41
2023-01-17T06:05:31.078Z,96597.17
2023-01-17T06:08:00.498Z,96604.89
2023-01-17T06:10:28.902Z,96608.58
2023-01-17T06:13:06.735Z,96606.15
2023-01-17T06:15:38.189Z,96598.58
2023-01-17T06:18:11.056Z,96590.83
2023-01-17T06:20:52.118Z,96590.86
2023-01-17T06:23:23.833Z,96598.91
2023-01-17T06:25:51.402Z,96606.93
2023-01-17T06:28:26.028Z,96605.74
2023-01-17T06:30:56.718Z,96598.46
2023-01-17T06:33:23.731Z,96593.09
2023-01-17T06:35:52.636Z,96591.71
2023-01-17T06:38:20.503Z,96586.27
2023-01-17T06:40:48.525Z,96586.29
2023-01-17T06:43:19.722Z,96582.16
2023-01-17T06:45:46.961Z,96575.48
2023-01-17T06:48:19.192Z,96572.43
2023-01-17T06:50:49.451Z,96568.92
2023-01-17T06:53:16.958Z,96569.98
2023-01-17T06:55:45.126Z,96572.71
2023-01-17T06:58:16.116Z,96568.98
2023-01-17T07:00:44.142Z,96567.55
2023-01-17T07:03:24.528Z,96570.66
2023-01-17T07:05:59.610Z,96575.72
2023-01-17T07:08:56.130Z,96572.06
2023-01-17T07:11:28.017Z,96571.63
2023-01-17T07:15:18.587Z,96567.40
2023-01-17T07:17:47.018Z,96565.41
2023-01-17T07:20:14.071Z,96565.84
2023-01-17T07:22:45.227Z,96574.77
2023-01-17T07:25:13.908Z,96570.10
2023-01-17T07:27:40.903Z,96569.02
2023-01-17T07:30:09.459Z,96566.36
2023-01-17T07:32:36.711Z,96564.30
2023-01-17T07:35:07.668Z,96563.44
2023-01-17T07:37:38.763Z,96558.84
2023-01-17T07:40:09.243Z,96563.23
2023-01-17T07:42:36.254Z,96565.05
2023-01-17T07:45:03.830Z,96572.16
2023-01-17T07:47:33.543Z,96574.23
2023-01-17T07:50:04.499Z,96579.83
2023-01-17T07:52:32.761Z,96579.19
2023-01-17T07:54:59.898Z,96588.05
2023-01-17T07:57:28.592Z,96588.46
2023-01-17T07:59:58.758Z,96592.19
2023-01-17T08:02:30.635Z,96591.61
2023-01-17T08:05:22.762Z,96600.09
2023-01-17T08:08:01.559Z,96601.94
2023-01-17T08:11:12.231Z,96607.70
2023-01-17T08:13:55.622Z,96610.25
2023-01-17T08:16:32.681Z,96616.98
2023-01-17T08:19:11.073Z,96622.27
2023-01-17T08:21:48.539Z,96625.15
2023-01-17T08:24:30.133Z,96625.67
2023-01-17T08:27:20.483Z,96630.27
2023-01-17T08:30:01.564Z,96632.55
2023-01-17T08:32:42.075Z,96640.20
2023-01-17T08:35:32.913Z,96646.23
2023-01-17T08:38:12.464Z,96654.33
2023-01-17T08:40:52.733Z,96656.35
2023-01-17T08:43:38.255Z,96657.49
2023-01-17T08:46:36.389Z,96655.13
2023-01-17T08:49:25.228Z,96655.58
2023-01-17T08:52:34.082Z,96654.05
2023-01-17T08:55:14.954Z,96656.52
2023-01-17T09:01:06.230Z,96661.23
2023-01-17T09:03:46.191Z,96666.25
2023-01-17T09:06:54.612Z,96675.50
2023-01-17T09:10:02.548Z,96685.82
2023-01-17T09:12:54.675Z,96688.73
2023-01-17T09:15:35.640Z,96688.39
2023-01-17T09:18:27.206Z,96693.55
2023-01-17T09:21:15.430Z,96690.85
2023-01-17T09:27:07.370Z,96699.70
2023-01-17T09:29:52.423Z,96697.73
2023-01-17T09:32:38.774Z,96696.63
2023-01-17T09:35:21.848Z,96694.89
2023-01-17T09:38:25.200Z,96691.75
2023-01-17T09:41:51.135Z,96684.66
2023-01-17T09:45:44.570Z,96672.52
2023-01-17T09:52:28.137Z,96665.59
2023-01-17T09:56:19.624Z,96666.42
2023-01-17T09:59:32.631Z,96673.12
2023-01-17T10:02:27.333Z,96679.91
2023-01-17T10:05:02.274Z,96673.77
2023-01-17T10:08:04.706Z,96668.71
2023-01-17T10:11:14.198Z,96664.23
2023-01-17T10:14:40.054Z,96664.41
2023-01-17T10:17:45.247Z,96668.76
2023-01-17T10:20:56.386Z,96674.71
2023-01-17T10:24:02.342Z,96673.84
2023-01-17T10:27:06.981Z,96676.70
2023-01-17T10:37:02.514Z,96691.24
2023-01-17T10:39:50.645Z,96694.59
2023-01-17T10:42:53.465Z,96693.63
2023-01-17T10:46:19.070Z,96697.09
2023-01-17T10:49:17.760Z,96699.98
2023-01-17T10:53:04.312Z,96698.79
2023-01-17T10:56:23.725Z,96702.36
2023-01-17T11:00:22.765Z,96704.53
2023-01-17T11:02:57.069Z,96712.16
2023-01-17T11:06:31.503Z,96714.28
2023-01-17T11:09:40.145Z,96714.17
2023-01-17T11:12:29.709Z,96709.52
2023-01-17T11:15:11.894Z,96711.11
2023-01-17T11:18:39.547Z,96706.64
2023-01-17T11:21:28.976Z,96698.62
2023-01-17T11:28:07.852Z,96689.52
2023-01-17T11:30:52.825Z,96691.08
2023-01-17T11:34:02.685Z,96691.11
2023-01-17T11:37:18.071Z,96690.92
2023-01-17T11:40:00.573Z,96690.67
2023-01-17T11:45:34.652Z,96684.81
2023-01-17T11:48:31.825Z,96682.61
2023-01-17T11:51:20.216Z,96687.46
2023-01-17T11:54:50.709Z,96688.13
2023-01-17T11:57:37.381Z,96689.42
2023-01-17T12:00:19.178Z,96687.04
2023-01-17T12:03:17.880Z,96689.73
2023-01-17T12:06:32.926Z,96693.55
2023-01-17T12:09:56.278Z,96690.24
2023-01-17T12:13:40.809Z,96686.23
2023-01-17T12:16:47.395Z,96683.86
2023-01-17T12:20:28.825Z,96685.88
2023-01-17T12:23:33.167Z,96681.83
2023-01-17T12:26:43.418Z,96681.73
2023-01-17T12:30:04.069Z,96677.48
2023-01-17T12:33:23.494Z,96685.34
2023-01-17T12:36:22.244Z,96690.48
2023-01-17T12:39:16.892Z,96687.85
2023-01-17T12:42:31.692Z,96681.41
2023-01-17T12:45:50.331Z,96680.23
2023-01-17T12:48:34.303Z,96681.44
2023-01-17T12:51:27.480Z,96683.24
2023-01-17T12:54:40.633Z,96681.55
2023-01-17T12:57:17.165Z,96681.38
2023-01-17T13:00:30.340Z,96685.02
2023-01-17T13:03:25.379Z,96686.09
2023-01-17T13:06:04.745Z,96691.16
2023-01-17T13:08:56.246Z,96696.80
2023-01-17T13:12:03.434Z,96700.80
2023-01-17T13:14:59.110Z,96700.48
2023-01-17T13:18:09.258Z,96698.89
2023-01-17T13:24:34.842Z,96705.85
2023-01-17T13:27:30.921Z,96707.41
2023-01-17T13:30:50.596Z,96714.70
2023-01-17T13:34:02.053Z,96721.79
2023-01-17T13:37:22.430Z,96729.40
2023-01-17T13:40:26.047Z,96732.70
2023-01-17T13:43:02.225Z,96739.48
2023-01-17T13:45:40.161Z,96735.65
2023-01-17T13:48:28.877Z,96737.95
2023-01-17T13:52:01.014Z,96745.05
2023-01-17T13:54:55.458Z,96749.52
2023-01-17T13:57:34.392Z,96751.36
2023-01-17T14:00:26.988Z,96757.71
2023-01-17T14:02:56.078Z,96761.14
2023-01-17T14:05:40.562Z,96767.67
2023-01-17T14:08:21.229Z,96779.12
2023-01-17T14:11:20.687Z,96787.95
2023-01-17T14:13:52.415Z,96798.56
2023-01-17T14:16:29.366Z,96801.89
2023-01-17T14:18:59.707Z,96801.95
2023-01-17T14:21:35.246Z,96805.84
2023-01-17T14:24:47.791Z,96808.63
2023-01-17T14:27:32.498Z,96811.16
2023-01-17T14:30:10.525Z,96816.62
2023-01-17T14:33:07.939Z,96819.66
2023-01-17T14:35:39.139Z,96819.65
2023-01-17T14:38:27.885Z,96828.36
2023-01-17T14:41:00.153Z,96830.98
2023-01-17T14:43:32.419Z,96829.66
2023-01-17T14:46:07.452Z,96829.66
2023-01-17T14:48:40.277Z,96832.95
2023-01-17T14:51:19.787Z,96838.00
2023-01-17T14:54:02.292Z,96843.85
2023-01-17T14:56:30.722Z,96851.27
2023-01-17T14:59:06.541Z,96857.41
2023-01-17T15:01:35.752Z,96865.23
2023-01-17T15:04:03.396Z,96870.59
2023-01-17T15:06:40.202Z,96871.80
2023-01-17T15:09:19.869Z,96874.10
2023-01-17T15:11:49.877Z,96873.84
2023-01-17T15:14:27.915Z,96872.81
2023-01-17T15:16:55.442Z,96873.64
2023-01-17T15:19:24.532Z,96874.27
2023-01-17T15:21:54.075Z,96876.34
2023-01-17T15:24:24.967Z,96879.90
2023-01-17T15:26:52.028Z,96878.52
2023-01-17T15:29:30.255Z,96877.81
2023-01-17T15:32:00.111Z,96879.38
2023-01-17T15:34:29.411Z,96876.58
2023-01-17T15:37:00.946Z,96882.14
2023-01-17T15:39:34.618Z,96883.38
2023-01-17T15:42:08.291Z,96889.49
2023-01-17T15:44:48.183Z,96891.88
2023-01-17T15:47:37.979Z,96890.33
2023-01-17T15:50:20.910Z,96896.45
2023-01-17T15:52:52.612Z,96900.35
2023-01-17T15:55:38.357Z,96903.22
2023-01-17T15:58:26.904Z,96899.61
2023-01-17T16:00:55.224Z,96901.27
2023-01-17T16:03:31.147Z,96900.67
2023-01-17T16:06:02.367Z,96895.58
2023-01-17T16:08:38.500Z,96890.63
2023-01-17T16:11:07.888Z,96888.73
2023-01-17T16:13:42.793Z,96882.24
2023-01-17T16:16:17.204Z,96876.06
2023-01-17T16:18:46.247Z,96869.16
2023-01-17T16:21:22.741Z,96851.79
2023-01-17T16:23:50.541Z,96843.66
2023-01-17T16:26:18.144Z,96847.50
2023-01-17T16:28:45.230Z,96848.79
2023-01-17T16:31:12.346Z,96848.67
2023-01-17T16:33:41.830Z,96854.00
2023-01-17T16:36:16.229Z,96849.89
2023-01-17T16:38:44.815Z,96850.61
2023-01-17T16:41:11.798Z,96844.60
2023-01-17T16:43:38.819Z,96843.11
2023-01-17T16:46:07.168Z,96853.40
2023-01-17T16:48:36.864Z,96854.90
2023-01-17T16:51:08.026Z,96843.77
2023-01-17T16:53:37.018Z,96832.64
2023-01-17T16:56:13.993Z,96825.66
2023-01-17T16:58:41.129Z,96812.70
2023-01-17T17:01:16.930Z,96795.04
2023-01-17T17:03:44.195Z,96790.70
2023-01-17T17:06:11.479Z,96803.98
2023-01-17T17:08:39.438Z,96805.77
2023-01-17T17:11:16.773Z,96806.41
2023-01-17T17:13:45.710Z,96819.67
2023-01-17T17:16:23.549Z,96823.27
2023-01-17T17:19:04.803Z,96827.11
2023-01-17T17:21:33.985Z,96832.63
2023-01-17T17:24:02.021Z,96838.58
2023-01-17T17:26:33.579Z,96839.50
2023-01-17T17:29:01.558Z,96839.66
2023-01-17T17:31:28.546Z,96830.59
2023-01-17T17:34:03.089Z,96814.65
2023-01-17T17:36:30.413Z,96805.14
2023-01-17T17:38:58.938Z,96795.48
2023-01-17T17:41:28.680Z,96787.45
2023-01-17T17:43:56.811Z,96783.86
2023-01-17T17:46:26.564Z,96784.77
2023-01-17T17:48:53.513Z,96785.34
2023-01-17T17:51:38.246Z,96785.06
2023-01-17T17:54:08.110Z,96778.67
2023-01-17T17:56:37.242Z,96777.07
2023-01-17T17:59:08.367Z,96782.61
2023-01-17T18:01:40.457Z,96789.27
2023-01-17T18:04:08.479Z,96800.43
2023-01-17T18:06:35.780Z,96798.45
2023-01-17T18:09:03.694Z,96792.98
2023-01-17T18:11:31.318Z,96803.85
2023-01-17T18:14:01.407Z,96809.63
2023-01-17T18:16:31.965Z,96808.39
2023-01-17T18:19:00.235Z,96813.91
2023-01-17T18:21:31.826Z,96819.00
2023-01-17T18:24:02.133Z,96815.52
2023-01-17T18:26:32.315Z,96814.10
2023-01-17T18:29:01.142Z,96820.89
2023-01-17T18:31:30.053Z,96820.00
2023-01-17T18:34:05.248Z,96814.77
2023-01-17T18:36:34.249Z,96811.58
2023-01-17T18:39:04.073Z,96809.51
2023-01-17T18:41:31.609Z,96810.42
2023-01-17T18:43:58.588Z,96811.20
2023-01-17T18:46:27.208Z,96816.09
2023-01-17T18:48:56.645Z,96820.25
2023-01-17T18:51:25.246Z,96821.66
2023-01-17T18:53:52.498Z,96832.14
2023-01-17T18:56:21.655Z,96834.12
2023-01-17T18:58:50.053Z,96838.81
2023-01-17T19:01:26.205Z,96835.27
2023-01-17T19:03:59.259Z,96825.95
2023-01-17T19:06:29.640Z,96818.92
2023-01-17T19:08:58.681Z,96816.61
2023-01-17T19:11:27.962Z,96820.13
2023-01-17T19:13:56.145Z,96815.92
2023-01-17T19:16:28.784Z,96814.91
2023-01-17T19:19:00.985Z,96815.48
2023-01-17T19:21:28.617Z,96818.33
2023-01-17T19:23:56.861Z,96818.83
2023-01-17T19:26:26.846Z,96820.52
2023-01-17T19:28:58.203Z,96816.94
2023-01-17T19:31:29.118Z,96821.77
2023-01-17T19:33:57.933Z,96812.11
2023-01-17T19:36:27.747Z,96815.46
2023-01-17T19:39:04.365Z,96818.00
2023-01-17T19:41:34.252Z,96815.58
2023-01-17T19:44:05.796Z,96813.96
2023-01-17T19:46:33.895Z,96814.00
2023-01-17T19:49:02.985Z,96808.34
2023-01-17T19:51:29.980Z,96805.13
2023-01-17T19:54:00.575Z,96805.34
2023-01-17T19:56:28.340Z,96807.20
2023-01-17T19:59:00.040Z,96808.09
2023-01-17T20:01:29.929Z,96806.54
2023-01-17T20:03:58.625Z,96798.35
2023-01-17T20:06:28.354Z,96796.21
2023-01-17T20:08:58.638Z,96789.66
2023-01-17T20:11:27.476Z,96779.69
2023-01-17T20:13:57.004Z,96775.27
2023-01-17T20:16:27.170Z,96772.64
2023-01-17T20:18:54.268Z,96779.72
2023-01-17T20:21:31.870Z,96779.80
2023-01-17T20:24:02.655Z,96780.02
2023-01-17T20:26:36.141Z,96783.64
2023-01-17T20:29:10.918Z,96780.26
2023-01-17T20:31:40.306Z,96772.80
2023-01-17T20:34:10.946Z,96769.30
2023-01-17T20:36:41.168Z,96768.83
2023-01-17T20:39:10.677Z,96769.23
2023-01-17T20:41:41.683Z,96765.95
2023-01-17T20:44:12.358Z,96757.98
2023-01-17T20:46:40.914Z,96759.06
2023-01-17T20:49:15.764Z,96756.60
2023-01-17T20:51:44.622Z,96753.09
2023-01-17T20:54:14.654Z,96748.45
2023-01-17T20:56:42.023Z,96743.67
2023-01-17T20:59:14.890Z,96743.39
2023-01-17T21:01:43.266Z,96742.80
2023-01-17T21:04:10.874Z,96736.97
2023-01-17T21:06:39.898Z,96722.86
2023-01-17T21:09:10.304Z,96725.60
2023-01-17T21:11:37.835Z,96725.27
2023-01-17T21:14:05.965Z,96721.45
2023-01-17T21:16:33.615Z,96720.48
2023-01-17T21:19:01.360Z,96715.11
2023-01-17T21:21:29.030Z,96713.09
2023-01-17T21:23:58.554Z,96708.10
2023-01-17T21:26:27.744Z,96709.17
2023-01-17T21:28:55.736Z,96702.59
2023-01-17T21:31:24.616Z,96701.18
2023-01-17T21:33:56.940Z,96698.94
2023-01-17T21:36:27.867Z,96696.11
2023-01-17T21:38:58.171Z,96698.23
2023-01-17T21:41:28.303Z,96698.92
2023-01-17T21:43:59.412Z,96698.38
2023-01-17T21:46:28.093Z,96692.85
2023-01-17T21:48:57.778Z,96692.69
2023-01-17T21:51:45.685Z,96696.14
2023-01-17T21:54:12.759Z,96695.31
2023-01-17T21:56:58.402Z,96690.98
2023-01-17T21:59:25.227Z,96689.92
2023-01-17T22:01:55.241Z,96687.95
2023-01-17T22:04:22.191Z,96684.88
2023-01-17T22:06:49.279Z,96682.67
2023-01-17T22:09:18.340Z,96687.19
2023-01-17T22:11:45.372Z,96685.02
2023-01-17T22:14:12.371Z,96684.45
2023-01-17T22:16:40.058Z,96676.38
2023-01-17T22:19:07.699Z,96678.82
2023-01-17T22:21:34.783Z,96667.27
2023-01-17T22:24:01.795Z,96662.11
2023-01-17T22:26:31.222Z,96661.73
2023-01-17T22:29:02.006Z,96656.52
2023-01-17T22:31:29.780Z,96665.05
2023-01-17T22:34:00.280Z,96656.75
2023-01-17T22:36:28.873Z,96654.23
2023-01-17T22:38:56.273Z,96654.58
2023-01-17T22:41:27.414Z,96651.58
2023-01-17T22:43:58.348Z,96646.07
2023-01-17T22:46:29.032Z,96640.05
2023-01-17T22:48:57.056Z,96637.45
2023-01-17T22:51:26.227Z,96633.31
2023-01-17T22:53:55.899Z,96635.51
2023-01-17T22:56:26.192Z,96633.27
2023-01-17T22:58:53.532Z,96632.38
2023-01-17T23:01:23.583Z,96630.25
2023-01-17T23:03:55.807Z,96631.23
2023-01-17T23:06:34.942Z,96630.66
2023-01-17T23:09:06.168Z,96627.10
2023-01-17T23:11:43.128Z,96621.68
2023-01-17T23:14:13.159Z,96614.11
2023-01-17T23:17:09.073Z,96603.35
2023-01-17T23:19:46.761Z,96600.86
2023-01-17T23:22:19.436Z,96594.48
2023-01-17T23:24:52.739Z,96588.67
2023-01-17T23:27:45.766Z,96581.42
2023-01-17T23:30:16.042Z,96571.93
2023-01-17T23:32:46.196Z,96565.78
2023-01-17T23:35:14.189Z,96559.14
2023-01-17T23:37:59.759Z,96557.29
2023-01-17T23:40:26.828Z,96554.29
2023-01-17T23:43:12.166Z,96545.44
2023-01-17T23:45:39.252Z,96541.67
2023-01-17T23:48:10.700Z,96538.94
2023-01-17T23:50:40.112Z,96538.29
2023-01-17T23:53:08.056Z,96535.88
2023-01-17T23:55:40.255Z,96533.77
2023-01-17T23:58:09.548Z,96532.53
